Time;durP1;ratioP1;P1;durP2;ratioP2;P2;SDS_P1;SDS_P2;PMS_P1;PMS_P2;Temp;Humidity;BMP_temperature;BMP_pressure;BME280_temperature;BME280_humidity;BME280_pressure;Samples;Min_cycle;Max_cycle;Signal;HPM_P1;HPM_P2
2022/06/20 00:00:41;;;;;;;8.07;2.15;;;;;;;15.90;78.99;100322.41;4965704;28;20061;-56
2022/06/20 00:03:19;;;;;;;6.80;2.75;;;;;;;15.89;78.91;100288.84;4967847;28;20078;-56
2022/06/20 00:05:47;;;;;;;4.80;1.65;;;;;;;15.87;79.19;100264.25;4964511;28;20074;-59
2022/06/20 00:08:14;;;;;;;8.75;2.22;;;;;;;15.85;79.61;100262.69;4972390;28;20361;-59
2022/06/20 00:10:43;;;;;;;10.57;2.17;;;;;;;15.83;80.28;100283.25;4969280;28;20058;-58
2022/06/20 00:13:19;;;;;;;10.35;3.08;;;;;;;15.83;81.14;100338.97;4965373;28;20487;-56
2022/06/20 00:15:48;;;;;;;10.70;3.22;;;;;;;15.80;80.84;100320.66;4963158;28;20061;-55
2022/06/20 00:18:16;;;;;;;17.27;2.80;;;;;;;15.83;80.91;100341.63;4974522;28;20050;-57
2022/06/20 00:20:44;;;;;;;8.48;2.70;;;;;;;15.79;81.12;100382.69;4962242;28;20077;-55
2022/06/20 00:23:11;;;;;;;7.55;2.10;;;;;;;15.73;82.22;100385.88;4963534;28;20487;-56
2022/06/20 00:25:39;;;;;;;9.45;2.25;;;;;;;15.66;82.22;100396.97;4962724;28;20073;-58
2022/06/20 00:28:07;;;;;;;13.13;2.22;;;;;;;15.62;82.61;100416.75;4967599;28;20061;-56
2022/06/20 00:30:35;;;;;;;9.25;2.60;;;;;;;15.62;83.30;100461.84;4974818;28;20046;-58
2022/06/20 00:33:03;;;;;;;5.25;2.03;;;;;;;15.59;84.28;100477.22;4967575;28;20058;-56
2022/06/20 00:35:32;;;;;;;7.22;2.50;;;;;;;15.61;83.74;100472.59;4962576;28;21975;-58
2022/06/20 00:38:01;;;;;;;9.88;2.38;;;;;;;15.58;83.56;100463.09;4967910;28;20415;-57
2022/06/20 00:40:41;;;;;;;8.95;2.60;;;;;;;15.54;83.65;100476.75;4971336;28;20050;-53
2022/06/20 00:43:15;;;;;;;9.80;2.85;;;;;;;15.51;84.28;100485.78;4966696;28;20463;-56
2022/06/20 00:45:45;;;;;;;6.82;2.03;;;;;;;15.49;84.93;100493.03;4960896;28;20062;-58
2022/06/20 00:48:16;;;;;;;6.65;2.72;;;;;;;15.48;85.16;100514.38;4963457;28;20146;-57
2022/06/20 00:50:47;;;;;;;8.50;2.78;;;;;;;15.47;85.14;100524.13;4964503;28;20054;-56
2022/06/20 00:53:23;;;;;;;7.30;2.50;;;;;;;15.46;85.37;100527.78;4961050;28;20051;-55
2022/06/20 00:55:54;;;;;;;8.05;2.40;;;;;;;15.45;85.15;100526.09;4966237;28;20043;-55
2022/06/20 00:58:38;;;;;;;8.77;3.13;;;;;;;15.46;85.38;100493.28;4956171;28;20054;-57
2022/06/20 01:01:11;;;;;;;7.35;3.00;;;;;;;15.45;86.01;100481.81;4965456;28;20054;-58
2022/06/20 01:03:44;;;;;;;10.95;3.55;;;;;;;15.43;85.64;100491.72;4966560;28;20043;-54
2022/06/20 01:06:14;;;;;;;10.75;3.15;;;;;;;15.45;85.55;100507.53;4968137;28;20058;-56
2022/06/20 01:08:44;;;;;;;8.02;3.50;;;;;;;15.46;85.62;100498.59;4961665;28;20597;-54
2022/06/20 01:11:17;;;;;;;8.43;3.78;;;;;;;15.44;85.51;100481.94;4964540;28;20050;-55
2022/06/20 01:13:45;;;;;;;7.43;3.25;;;;;;;15.43;85.46;100469.66;4985113;23;20072;-51
2022/06/20 01:16:12;;;;;;;10.77;4.18;;;;;;;15.42;85.32;100441.44;4984552;28;20407;-54
2022/06/20 01:18:42;;;;;;;10.98;3.90;;;;;;;15.43;85.05;100435.16;4982491;28;20287;-54
2022/06/20 01:21:19;;;;;;;8.88;4.25;;;;;;;15.42;84.76;100417.56;4982573;28;20058;-49
2022/06/20 01:24:23;;;;;;;12.73;5.57;;;;;;;15.41;85.16;100421.19;4981108;28;20073;-52
2022/06/20 01:27:12;;;;;;;12.88;4.57;;;;;;;15.37;85.56;100414.44;4984794;28;20080;-54
2022/06/20 01:29:39;;;;;;;11.13;5.05;;;;;;;15.34;86.79;100404.09;4978362;28;20090;-52
2022/06/20 01:32:06;;;;;;;13.70;5.97;;;;;;;15.32;86.79;100425.44;4988257;28;20064;-48
2022/06/20 01:34:34;;;;;;;12.52;5.63;;;;;;;15.28;87.34;100479.69;4982506;28;20058;-56
2022/06/20 01:37:25;;;;;;;11.88;5.78;;;;;;;15.25;88.50;100474.63;4981282;28;20426;-52
2022/06/20 01:39:57;;;;;;;15.18;6.15;;;;;;;15.23;88.34;100443.91;4980098;28;20889;-51
2022/06/20 01:42:27;;;;;;;14.57;5.50;;;;;;;15.21;88.45;100470.53;4981453;28;20068;-55
2022/06/20 01:45:03;;;;;;;12.10;5.15;;;;;;;15.17;89.28;100493.84;4985137;28;20392;-53
2022/06/20 01:47:32;;;;;;;10.48;5.13;;;;;;;15.12;89.97;100495.97;4986510;28;20061;-55
2022/06/20 01:50:03;;;;;;;10.98;4.32;;;;;;;15.09;90.41;100498.91;4976218;28;20093;-56
2022/06/20 01:52:34;;;;;;;11.75;4.47;;;;;;;15.04;91.01;100509.03;4984490;28;20468;-54
2022/06/20 01:55:08;;;;;;;13.35;3.95;;;;;;;15.04;91.88;100508.16;4980395;28;20062;-51
2022/06/20 01:57:38;;;;;;;8.10;3.63;;;;;;;15.03;91.59;100496.72;4985731;28;20141;-55
2022/06/20 02:00:12;;;;;;;10.98;4.45;;;;;;;15.05;91.46;100502.75;4986563;28;20073;-53
2022/06/20 02:02:42;;;;;;;12.80;4.50;;;;;;;15.05;91.33;100492.16;4986274;28;20442;-53
2022/06/20 02:05:12;;;;;;;14.07;4.53;;;;;;;15.06;91.17;100477.09;4965577;28;20073;-54
2022/06/20 02:07:40;;;;;;;10.02;4.20;;;;;;;15.08;91.48;100453.94;4985361;28;20137;-56
2022/06/20 02:10:11;;;;;;;11.43;4.55;;;;;;;15.07;91.64;100437.19;4985612;28;20065;-50
2022/06/20 02:12:38;;;;;;;10.85;4.63;;;;;;;15.04;91.93;100436.59;4986850;28;20068;-53
2022/06/20 02:15:06;;;;;;;12.43;4.47;;;;;;;15.00;92.54;100445.78;4987584;28;20058;-50
2022/06/20 02:17:37;;;;;;;12.20;4.43;;;;;;;14.96;92.62;100458.44;4989577;28;20049;-53
2022/06/20 02:20:11;;;;;;;9.05;3.78;;;;;;;14.98;92.18;100477.69;4983193;28;20081;-51
2022/06/20 02:22:39;;;;;;;9.63;3.75;;;;;;;14.99;91.96;100479.38;4984409;28;20055;-53
2022/06/20 02:25:09;;;;;;;11.02;4.15;;;;;;;15.00;92.24;100478.44;4978489;28;20922;-51
2022/06/20 02:27:39;;;;;;;10.55;3.70;;;;;;;14.99;92.40;100479.38;4992644;28;20131;-56
2022/06/20 02:30:07;;;;;;;7.45;3.15;;;;;;;15.01;91.75;100466.84;4986310;28;20054;-54
2022/06/20 02:32:43;;;;;;;12.85;4.00;;;;;;;15.02;91.92;100479.13;4987303;28;20526;-52
2022/06/20 02:35:14;;;;;;;9.23;3.83;;;;;;;15.03;92.05;100458.75;4980489;28;20062;-53
2022/06/20 02:37:42;;;;;;;7.45;3.80;;;;;;;15.00;91.96;100457.22;4982973;28;20080;-53
2022/06/20 02:40:12;;;;;;;11.02;3.95;;;;;;;14.98;92.43;100464.44;4982630;28;20066;-50
2022/06/20 02:42:59;;;;;;;7.72;3.92;;;;;;;15.00;92.15;100429.88;4986683;28;20517;-51
2022/06/20 02:45:28;;;;;;;14.23;4.10;;;;;;;15.01;92.26;100424.44;4991672;28;20042;-53
2022/06/20 02:47:57;;;;;;;14.40;4.95;;;;;;;15.04;91.83;100410.06;4986094;28;20474;-53
2022/06/20 02:50:30;;;;;;;10.60;3.88;;;;;;;15.04;91.23;100380.91;4996527;28;20062;-50
2022/06/20 02:53:02;;;;;;;7.25;3.60;;;;;;;15.01;90.92;100366.13;4985290;28;20058;-51
2022/06/20 02:55:30;;;;;;;11.68;4.20;;;;;;;15.00;90.74;100355.66;4987271;28;20066;-52
2022/06/20 02:58:00;;;;;;;9.90;4.03;;;;;;;14.97;90.76;100359.38;4988211;28;20054;-54
2022/06/20 03:00:34;;;;;;;9.98;3.47;;;;;;;14.97;90.24;100361.19;4985920;28;20768;-55
2022/06/20 03:03:07;;;;;;;7.85;3.85;;;;;;;15.00;90.63;100359.13;4992588;28;20507;-49
2022/06/20 03:05:36;;;;;;;11.15;4.45;;;;;;;14.99;90.34;100354.78;4984671;28;20065;-48
2022/06/20 03:08:03;;;;;;;9.27;3.80;;;;;;;15.00;90.40;100363.59;4987040;28;20077;-53
2022/06/20 03:10:40;;;;;;;14.40;4.30;;;;;;;15.01;90.83;100378.53;4986902;28;20055;-56
2022/06/20 03:13:08;;;;;;;7.63;3.42;;;;;;;15.02;90.51;100393.47;4992295;28;20073;-51
2022/06/20 03:15:36;;;;;;;9.40;3.83;;;;;;;15.04;90.51;100408.28;4987244;28;20433;-55
2022/06/20 03:18:05;;;;;;;8.95;4.18;;;;;;;15.03;90.71;100395.97;4993732;28;20073;-56
2022/06/20 03:20:34;;;;;;;11.63;4.78;;;;;;;15.04;89.95;100355.28;4990567;28;20186;-52
2022/06/20 03:23:06;;;;;;;11.00;4.68;;;;;;;15.05;89.64;100354.28;4992352;28;20058;-50
2022/06/20 03:25:36;;;;;;;8.13;4.05;;;;;;;15.05;89.27;100356.09;5009464;28;20054;-53
2022/06/20 03:28:03;;;;;;;6.03;3.60;;;;;;;15.03;89.16;100336.81;4987905;28;20055;-52
2022/06/20 03:30:52;;;;;;;11.10;3.72;;;;;;;15.01;88.58;100310.44;4980349;28;20061;-53
2022/06/20 03:33:21;;;;;;;9.65;3.30;;;;;;;15.04;88.43;100312.84;4984912;28;20101;-53
2022/06/20 03:35:53;;;;;;;9.88;3.50;;;;;;;15.06;88.30;100328.63;4984842;28;20066;-52
2022/06/20 03:38:21;;;;;;;9.23;3.95;;;;;;;15.08;88.22;100330.16;4983499;28;20138;-52
2022/06/20 03:40:49;;;;;;;10.60;4.22;;;;;;;15.14;nan;100295.22;4982611;28;20054;-54
2022/06/20 03:43:19;;;;;;;9.85;3.85;;;;;;;15.19;87.68;100282.41;4985453;28;20065;-56
2022/06/20 03:45:50;;;;;;;7.90;3.35;;;;;;;15.25;87.08;100285.50;4985462;28;20511;-55
2022/06/20 03:48:21;;;;;;;10.68;3.00;;;;;;;15.29;86.96;100297.53;4959795;28;20061;-54
2022/06/20 03:50:53;;;;;;;6.90;3.63;;;;;;;15.33;86.71;100280.41;4975547;28;20046;-54
2022/06/20 03:53:22;;;;;;;8.55;3.17;;;;;;;15.40;86.19;100292.16;4984808;28;20050;-50
2022/06/20 03:56:48;;;;;;;8.55;3.70;;;;;;;15.46;85.50;100318.19;4971602;28;20058;-54
2022/06/20 03:59:29;;;;;;;9.95;3.03;;;;;;;15.46;84.94;100304.94;4944571;28;20055;-52
2022/06/20 04:02:04;;;;;;;8.32;3.10;;;;;;;15.48;84.12;100288.88;4980326;28;20061;-52
2022/06/20 04:04:38;;;;;;;13.75;3.20;;;;;;;15.52;83.97;100282.34;4988740;28;20066;-56
2022/06/20 04:07:10;;;;;;;7.10;3.03;;;;;;;15.56;83.12;100294.38;4984379;28;20058;-53
2022/06/20 04:12:42;;;;;;;12.27;3.50;;;;;;;15.63;82.12;100307.00;4987257;28;20058;-51
2022/06/20 04:15:12;;;;;;;5.97;2.65;;;;;;;15.72;81.51;100315.19;4983493;28;20054;-53
2022/06/20 04:20:50;;;;;;;11.75;3.20;;;;;;;15.89;80.42;100303.94;4977219;28;20046;-53
2022/06/20 04:23:23;;;;;;;7.68;2.85;;;;;;;15.98;78.90;100307.59;4987570;28;20050;-51
2022/06/20 04:26:05;;;;;;;5.40;2.60;;;;;;;16.08;77.66;100316.47;4985808;28;20410;-54
2022/06/20 04:28:34;;;;;;;12.05;3.65;;;;;;;16.20;77.02;100294.97;4983837;28;20046;-53
2022/06/20 04:31:19;;;;;;;5.18;2.65;;;;;;;16.31;76.96;100294.06;4983911;28;20054;-53
2022/06/20 04:33:58;;;;;;;8.73;3.42;;;;;;;16.43;76.12;100310.72;4980566;28;20071;-54
2022/06/20 04:36:33;;;;;;;10.25;3.05;;;;;;;16.57;75.85;100288.22;4971606;28;20058;-52
2022/06/20 04:39:24;;;;;;;6.32;2.28;;;;;;;16.71;74.03;100290.50;4982774;28;20200;-50
2022/06/20 04:41:56;;;;;;;7.63;3.13;;;;;;;16.82;73.81;100302.84;4983439;28;20058;-52
2022/06/20 04:44:35;;;;;;;4.93;2.92;;;;;;;16.78;73.44;100312.09;4986971;28;20411;-52
2022/06/20 04:47:11;;;;;;;7.05;3.03;;;;;;;16.69;74.06;100325.19;4976602;28;20054;-50
2022/06/20 04:49:39;;;;;;;3.75;2.40;;;;;;;16.60;74.27;100288.81;4980584;28;20050;-54
2022/06/20 04:52:10;;;;;;;12.30;3.63;;;;;;;16.41;75.59;100280.78;4995633;28;20487;-54
2022/06/20 04:54:38;;;;;;;9.50;3.38;;;;;;;16.27;76.46;100265.25;4978603;28;20055;-52
2022/06/20 04:57:06;;;;;;;7.18;2.60;;;;;;;16.24;76.72;100292.06;4989163;28;20153;-50
2022/06/20 04:59:33;;;;;;;7.53;3.08;;;;;;;16.21;77.25;100314.44;4984037;28;20038;-50
2022/06/20 05:02:04;;;;;;;10.23;3.40;;;;;;;16.16;78.07;100293.56;4981336;28;20426;-56
2022/06/20 05:04:37;;;;;;;7.72;2.90;;;;;;;16.11;79.46;100317.03;4977939;28;20522;-52
2022/06/20 05:07:29;;;;;;;13.93;3.72;;;;;;;16.09;80.47;100323.47;4976103;28;20065;-51
2022/06/20 05:10:11;;;;;;;10.55;3.90;;;;;;;16.03;80.60;100351.41;4979054;28;20362;-56
2022/06/20 05:12:48;;;;;;;8.68;3.67;;;;;;;16.03;81.12;100358.50;4977186;28;20061;-54
2022/06/20 05:15:20;;;;;;;7.97;3.00;;;;;;;16.02;82.26;100360.31;4976350;28;20391;-50
2022/06/20 05:17:48;;;;;;;11.38;3.75;;;;;;;16.00;83.16;100390.66;4984472;28;20058;-55
2022/06/20 05:20:23;;;;;;;9.35;3.88;;;;;;;15.94;83.95;100398.16;4982580;28;20499;-56
2022/06/20 05:23:01;;;;;;;10.70;3.60;;;;;;;15.92;84.37;100400.09;4980187;28;20388;-52
2022/06/20 05:25:30;;;;;;;10.45;3.90;;;;;;;15.94;85.20;100392.00;4977110;28;20058;-52
2022/06/20 05:28:05;;;;;;;12.18;4.25;;;;;;;15.86;85.25;100411.25;4981849;28;20062;-53
2022/06/20 05:30:34;;;;;;;11.18;4.68;;;;;;;15.80;85.59;100413.56;4988915;28;20054;-55
2022/06/20 05:33:10;;;;;;;11.88;4.18;;;;;;;15.67;86.46;100438.50;4985034;28;20056;-55
2022/06/20 05:35:51;;;;;;;14.57;4.85;;;;;;;15.54;90.31;100452.88;4980493;28;20054;-54
2022/06/20 05:38:58;;;;;;;17.10;5.65;;;;;;;15.39;93.08;100494.72;4988329;28;20054;-54
2022/06/20 05:41:26;;;;;;;12.13;6.00;;;;;;;15.28;93.80;100531.91;4920803;29;20055;-51
2022/06/20 05:43:54;;;;;;;13.90;5.60;;;;;;;15.08;95.84;100558.16;4934328;29;20051;-51
2022/06/20 05:46:33;;;;;;;12.90;5.63;;;;;;;14.92;96.82;100539.16;4964201;28;20065;-52
2022/06/20 05:49:09;;;;;;;9.18;5.15;;;;;;;14.90;96.59;100527.81;4990764;28;20058;-51
2022/06/20 05:51:38;;;;;;;16.95;4.88;;;;;;;14.94;97.34;100529.25;4995077;28;20058;-54
2022/06/20 05:54:11;;;;;;;11.45;5.47;;;;;;;14.96;97.20;100531.81;4989605;28;20080;-52
2022/06/20 05:56:50;;;;;;;15.95;6.22;;;;;;;14.99;98.39;100561.56;4983164;28;20070;-54
2022/06/20 05:59:31;;;;;;;14.18;5.47;;;;;;;14.92;97.69;100549.75;4984840;28;20142;-51
2022/06/20 06:02:03;;;;;;;12.15;5.22;;;;;;;14.91;97.39;100556.03;4981731;28;20054;-51
2022/06/20 06:04:39;;;;;;;16.80;5.47;;;;;;;14.88;97.53;100558.91;4988751;28;20400;-50
2022/06/20 06:07:10;;;;;;;;;;;;;;;14.86;97.47;100540.47;4982429;28;20057;-55
2022/06/20 06:09:46;;;;;;;10.50;5.32;;;;;;;14.87;97.42;100522.78;4983394;28;20408;-53
2022/06/20 06:12:26;;;;;;;18.35;6.43;;;;;;;14.87;99.61;100465.31;4979912;28;20062;-52
2022/06/20 06:15:02;;;;;;;15.93;7.00;;;;;;;14.86;100.00;100293.13;4981850;28;20885;-52
2022/06/20 06:17:34;;;;;;;17.98;7.68;;;;;;;14.86;100.00;100233.06;5005511;28;20054;-53
2022/06/20 06:20:17;;;;;;;12.88;6.25;;;;;;;14.87;100.00;100205.56;4984260;28;20050;-52
2022/06/20 06:22:47;;;;;;;14.63;6.60;;;;;;;14.91;100.00;100203.50;4986203;28;20061;-53
2022/06/20 06:25:23;;;;;;;12.95;6.78;;;;;;;14.88;100.00;100195.81;4985564;28;20137;-51
2022/06/20 06:27:53;;;;;;;14.73;6.32;;;;;;;14.86;100.00;100192.44;4983229;28;20054;-51
2022/06/20 06:30:22;;;;;;;13.52;6.18;;;;;;;14.90;100.00;100234.47;4980331;28;20142;-53
2022/06/20 06:33:40;;;;;;;11.70;5.97;;;;;;;14.93;100.00;100251.91;4979780;28;21713;-51
2022/06/20 06:36:32;;;;;;;10.60;5.78;;;;;;;14.97;100.00;100300.22;4950396;28;20150;-53
2022/06/20 06:39:14;;;;;;;11.13;5.97;;;;;;;15.07;100.00;100309.09;4972669;28;20046;-54
2022/06/20 06:41:48;;;;;;;13.50;6.63;;;;;;;15.21;100.00;100327.34;4977631;28;20113;-56
2022/06/20 06:44:24;;;;;;;12.88;6.22;;;;;;;15.36;99.43;100349.13;4983971;28;20442;-53
2022/06/20 06:46:53;;;;;;;9.07;5.60;;;;;;;15.47;98.60;100366.78;4986184;28;20510;-54
2022/06/20 06:49:43;;;;;;;9.88;4.90;;;;;;;15.62;98.04;100361.00;4987092;28;20054;-53
2022/06/20 06:52:17;;;;;;;10.75;4.47;;;;;;;15.75;96.63;100354.72;4994884;28;20053;-57
2022/06/20 06:54:56;;;;;;;7.57;4.68;;;;;;;15.84;95.37;100306.16;4987479;28;20062;-56
2022/06/20 06:57:37;;;;;;;7.70;5.00;;;;;;;15.98;94.14;100294.34;4971864;28;20141;-56
2022/06/20 07:00:04;;;;;;;10.52;4.95;;;;;;;16.15;93.84;100289.25;4994277;28;20913;-53
2022/06/20 07:02:38;;;;;;;7.38;4.47;;;;;;;16.38;93.69;100260.66;4984486;28;20089;-56
2022/06/20 07:05:22;;;;;;;10.63;5.00;;;;;;;16.54;91.88;100253.97;4984344;28;20062;-55
2022/06/20 07:07:53;;;;;;;8.73;4.20;;;;;;;16.68;91.41;100257.06;4986163;28;20058;-51
2022/06/20 07:10:40;;;;;;;7.82;4.72;;;;;;;16.70;90.68;100249.78;4986141;28;20494;-56
2022/06/20 07:13:19;;;;;;;7.47;3.97;;;;;;;16.70;89.78;100246.28;4985590;28;20481;-56
2022/06/20 07:15:48;;;;;;;7.05;3.60;;;;;;;16.69;89.86;100244.59;4978138;28;20068;-52
2022/06/20 07:18:33;;;;;;;5.60;4.15;;;;;;;16.54;90.16;100252.16;4982040;28;20133;-56
2022/06/20 07:21:00;;;;;;;8.73;4.32;;;;;;;16.39;90.38;100246.41;4980560;28;20066;-52
2022/06/20 07:23:27;;;;;;;7.80;4.63;;;;;;;16.33;90.22;100252.25;4986431;28;20054;-54
2022/06/20 07:25:55;;;;;;;9.43;4.15;;;;;;;16.25;90.50;100259.22;4979523;28;20046;-51
2022/06/20 07:28:40;;;;;;;5.68;4.45;;;;;;;16.18;90.82;100282.84;4991792;28;20054;-54
2022/06/20 07:31:18;;;;;;;7.72;4.45;;;;;;;16.10;91.23;100270.22;4983048;28;20628;-55
2022/06/20 07:34:00;;;;;;;9.25;4.75;;;;;;;16.01;91.78;100270.19;4986139;23;20129;-82
2022/06/20 07:37:09;;;;;;;5.22;4.20;;;;;;;15.94;92.24;100280.50;4977246;28;20450;-83
2022/06/20 07:44:42;;;;;;;7.85;5.00;;;;;;;16.05;92.53;100330.84;5011833;28;20042;-83
2022/06/20 07:48:28;;;;;;;8.02;4.93;;;;;;;16.13;92.29;100346.13;4980606;28;20082;-83
2022/06/20 07:51:31;;;;;;;8.10;4.57;;;;;;;16.15;91.95;100368.06;4906710;29;20059;-82
2022/06/20 07:54:32;;;;;;;12.75;5.82;;;;;;;16.18;92.41;100384.59;4906968;29;20056;-82
2022/06/20 07:57:27;;;;;;;14.13;6.43;;;;;;;16.22;91.52;100409.06;4899349;29;20056;-84
2022/06/20 08:00:12;;;;;;;10.93;5.60;;;;;;;16.23;91.03;100420.53;4890281;29;20048;-83
2022/06/20 08:03:45;;;;;;;9.88;6.05;;;;;;;16.13;89.93;100434.59;4950607;28;20197;-83
2022/06/20 08:07:05;;;;;;;11.13;5.63;;;;;;;16.04;91.07;100434.56;4984635;28;20071;-83
2022/06/20 08:11:06;;;;;;;15.25;4.95;;;;;;;16.03;90.33;100427.53;4964731;28;20059;-83
2022/06/20 08:18:31;;;;;;;7.60;4.97;;;;;;;16.12;89.80;100411.69;4892146;29;20110;-84
2022/06/20 08:21:39;;;;;;;10.13;5.82;;;;;;;16.19;89.86;100406.69;4897316;28;20066;-84
2022/06/20 08:24:16;;;;;;;8.60;5.43;;;;;;;16.17;90.61;100406.81;4979956;28;20344;-85
2022/06/20 08:40:50;;;;;;;9.90;6.00;;;;;;;16.24;92.01;100276.13;4976677;28;20043;-83
2022/06/20 08:52:26;;;;;;;;;;;;;;;;;;;;;
2022/06/20 08:56:13;;;;;;;9.23;5.68;;;;;;;15.91;92.54;100409.03;4923958;28;20032;-82
2022/06/20 08:59:29;;;;;;;9.88;5.40;;;;;;;15.84;92.84;100397.22;4921331;28;20127;-83
2022/06/20 09:06:45;;;;;;;12.20;6.07;;;;;;;15.99;92.99;100389.81;4975955;28;20031;-84
2022/06/20 09:14:56;;;;;;;11.88;5.30;;;;;;;16.31;91.79;100391.50;4982346;28;20134;-80
2022/06/20 09:17:57;;;;;;;7.60;4.78;;;;;;;16.32;91.20;100395.84;4982196;28;20051;-83
2022/06/20 09:20:27;;;;;;;6.88;4.50;;;;;;;16.27;91.03;100390.09;4983390;28;20292;-83
2022/06/20 09:23:10;;;;;;;8.70;5.38;;;;;;;16.28;91.44;100381.13;4986550;28;20084;-83
2022/06/20 09:25:56;;;;;;;12.40;4.45;;;;;;;16.23;91.26;100386.84;4974038;28;20066;-82
2022/06/20 09:33:44;;;;;;;;;;;;;;;;;;;;;
2022/06/20 09:37:31;;;;;;;;;;;;;;;;;;;;;
2022/06/20 09:45:31;;;;;;;5.53;4.18;;;;;;;16.88;88.14;100379.41;4983047;28;20053;-82
2022/06/20 09:53:40;;;;;;;5.78;3.85;;;;;;;16.86;86.24;100402.63;4944131;28;20206;-82
2022/06/20 10:02:11;;;;;;;;;;;;;;;;;;;;;
2022/06/20 10:06:03;;;;;;;6.97;3.70;;;;;;;16.52;86.49;100386.97;5002819;22;20051;-55
2022/06/20 10:08:56;;;;;;;9.20;4.07;;;;;;;16.44;86.88;100392.13;4984727;28;20061;-56
2022/06/20 10:11:35;;;;;;;15.18;4.95;;;;;;;16.41;87.51;100390.56;4991091;28;20057;-55
2022/06/20 10:14:11;;;;;;;7.70;4.05;;;;;;;16.42;87.77;100388.75;4987260;28;20074;-54
2022/06/20 10:16:59;;;;;;;13.70;4.95;;;;;;;16.39;87.76;100386.34;4980897;28;20137;-53
2022/06/20 10:20:03;;;;;;;12.30;5.63;;;;;;;16.30;89.14;100393.31;4982707;28;20073;-55
2022/06/20 10:22:47;;;;;;;11.00;5.05;;;;;;;16.31;88.84;100399.47;4963725;28;20057;-53
2022/06/20 10:25:42;;;;;;;9.52;5.43;;;;;;;16.30;88.65;100409.25;4991387;28;20053;-56
2022/06/20 10:28:16;;;;;;;7.10;4.75;;;;;;;16.26;88.99;100415.81;4996638;28;20866;-54
2022/06/20 10:30:51;;;;;;;17.63;5.60;;;;;;;16.15;90.26;100413.22;4978123;28;20129;-56
2022/06/20 10:33:29;;;;;;;8.45;5.50;;;;;;;16.07;90.60;100418.34;5006575;28;20717;-58
2022/06/20 10:36:23;;;;;;;8.52;4.82;;;;;;;16.08;90.85;100420.88;4985264;28;20066;-52
2022/06/20 10:39:07;;;;;;;10.93;4.65;;;;;;;16.14;90.66;100414.19;4978244;28;20527;-58
2022/06/20 10:41:44;;;;;;;9.02;5.72;;;;;;;16.18;90.61;100421.78;4980893;28;20058;-58
2022/06/20 10:44:17;;;;;;;10.13;5.13;;;;;;;16.22;91.03;100432.16;4984888;28;20058;-53
2022/06/20 10:47:19;;;;;;;11.00;4.93;;;;;;;16.15;91.03;100445.09;4985753;28;20080;-58
2022/06/20 10:49:55;;;;;;;7.47;4.47;;;;;;;16.14;91.48;100451.38;4978616;28;20509;-57
2022/06/20 10:52:34;;;;;;;9.07;4.80;;;;;;;16.14;92.04;100454.03;4982901;28;20510;-57
2022/06/20 10:55:14;;;;;;;10.60;4.88;;;;;;;16.15;93.53;100443.28;4991760;28;20066;-52
2022/06/20 10:58:08;;;;;;;8.68;5.38;;;;;;;16.28;93.48;100434.25;4980920;28;20065;-55
2022/06/20 11:00:48;;;;;;;10.77;4.93;;;;;;;16.53;93.03;100436.50;4998923;28;20050;-55
2022/06/20 11:03:23;;;;;;;8.30;4.90;;;;;;;16.67;92.01;100438.78;4990635;28;20062;-58
2022/06/20 11:06:16;;;;;;;7.30;4.57;;;;;;;16.73;90.95;100445.41;4986014;28;20085;-56
2022/06/20 11:08:53;;;;;;;7.75;4.10;;;;;;;16.68;90.84;100444.94;4984898;28;20055;-54
2022/06/20 11:11:42;;;;;;;6.82;4.20;;;;;;;16.67;90.46;100443.25;4981985;28;20042;-56
2022/06/20 11:14:32;;;;;;;6.00;3.60;;;;;;;16.46;90.77;100422.88;4985771;28;20050;-57
2022/06/20 11:17:15;;;;;;;7.57;3.58;;;;;;;16.51;90.23;100426.97;4987834;28;20054;-58
2022/06/20 11:19:47;;;;;;;4.15;2.83;;;;;;;16.47;90.23;100431.69;4988647;28;20306;-57
2022/06/20 11:22:30;;;;;;;5.18;3.00;;;;;;;16.38;90.96;100432.50;4987717;28;20050;-57
2022/06/20 11:25:09;;;;;;;7.22;3.50;;;;;;;16.26;91.20;100444.19;4980724;28;20145;-53
2022/06/20 11:27:59;;;;;;;6.70;3.30;;;;;;;16.22;91.93;100448.91;4984299;28;20050;-54
2022/06/20 11:30:36;;;;;;;11.63;2.97;;;;;;;16.23;91.67;100450.59;4968299;28;20050;-57
2022/06/20 11:33:09;;;;;;;8.23;3.25;;;;;;;16.24;91.55;100444.31;4976370;28;20054;-57
2022/06/20 11:35:58;;;;;;;5.38;2.97;;;;;;;16.29;91.35;100438.59;4971209;28;20586;-57
2022/06/20 11:38:49;;;;;;;7.35;3.45;;;;;;;16.32;90.93;100447.16;4993357;28;20058;-57
2022/06/20 11:41:39;;;;;;;3.97;2.65;;;;;;;16.09;90.66;100454.44;4991248;28;20061;-58
2022/06/20 11:44:35;;;;;;;4.65;3.25;;;;;;;15.85;91.60;100460.00;4973334;28;20053;-56
2022/06/20 11:47:31;;;;;;;5.53;3.25;;;;;;;15.85;91.80;100459.13;4982871;28;20110;-56
2022/06/20 11:50:34;;;;;;;6.63;3.10;;;;;;;15.85;92.30;100467.09;4969659;28;20070;-56
2022/06/20 11:53:39;;;;;;;4.07;1.90;;;;;;;15.77;90.86;100464.25;4976271;28;20046;-56
2022/06/20 11:56:33;;;;;;;3.80;2.05;;;;;;;15.72;89.77;100463.81;4970453;28;20689;-56
2022/06/20 11:59:38;;;;;;;4.78;2.30;;;;;;;15.70;90.49;100470.06;4985566;28;20063;-55
2022/06/20 12:02:11;;;;;;;5.43;1.95;;;;;;;15.59;88.67;100456.81;4970084;28;20442;-53
2022/06/20 12:04:56;;;;;;;2.50;1.90;;;;;;;15.66;89.79;100463.31;4971103;28;20463;-56
2022/06/20 12:08:17;;;;;;;4.10;2.20;;;;;;;15.69;89.19;100471.03;4975401;28;20050;-53
2022/06/20 12:10:55;;;;;;;5.35;1.88;;;;;;;15.60;89.50;100473.56;4961393;28;20138;-55
2022/06/20 12:13:31;;;;;;;3.53;1.52;;;;;;;15.61;88.97;100481.41;4972336;28;20085;-56
2022/06/20 12:16:31;;;;;;;2.95;1.58;;;;;;;15.58;87.40;100484.31;4985065;28;20043;-53
2022/06/20 12:24:50;;;;;;;3.97;1.52;;;;;;;15.62;87.30;100501.66;4972194;28;20047;-55
2022/06/20 12:27:18;;;;;;;2.38;1.33;;;;;;;15.47;87.70;100500.25;4963498;28;20081;-55
2022/06/20 12:29:47;;;;;;;4.40;1.60;;;;;;;15.44;87.27;100501.38;4978464;28;20051;-56
2022/06/20 12:32:19;;;;;;;5.85;1.73;;;;;;;15.52;87.55;100500.72;4973993;28;20652;-56
2022/06/20 12:35:11;;;;;;;3.92;1.50;;;;;;;15.40;86.77;100496.41;4979207;28;20062;-57
2022/06/20 12:37:56;;;;;;;4.65;2.20;;;;;;;15.52;87.47;100505.19;4972277;28;20078;-57
2022/06/20 12:40:34;;;;;;;;;;;;;;;15.55;87.28;100497.84;4973848;28;20047;-58
2022/06/20 12:43:10;;;;;;;2.45;1.58;;;;;;;15.59;87.63;100503.75;4968155;28;19933;-56
2022/06/20 12:45:56;;;;;;;2.28;1.33;;;;;;;15.35;86.61;100491.47;4964891;28;20062;-56
2022/06/20 12:48:41;;;;;;;4.90;1.92;;;;;;;15.44;87.50;100489.91;4968808;28;20614;-56
2022/06/20 12:51:20;;;;;;;3.45;1.70;;;;;;;15.53;88.22;100494.44;4969322;28;20069;-54
2022/06/20 12:53:59;;;;;;;4.20;1.70;;;;;;;15.54;88.98;100501.47;4971697;28;20058;-54
2022/06/20 12:56:39;;;;;;;2.38;1.30;;;;;;;15.30;89.90;100511.38;4971869;28;20055;-55
2022/06/20 12:59:34;;;;;;;2.45;1.55;;;;;;;15.18;89.25;100494.69;4971830;28;20051;-54
2022/06/20 13:02:19;;;;;;;2.40;1.40;;;;;;;15.34;89.92;100496.91;4985379;28;20079;-59
2022/06/20 13:05:32;;;;;;;4.82;1.70;;;;;;;15.12;87.19;100511.06;4978648;28;20133;-54
2022/06/20 13:08:30;;;;;;;3.03;1.40;;;;;;;15.09;87.71;100488.28;4924455;29;20334;-54
2022/06/20 13:11:23;;;;;;;3.42;1.42;;;;;;;15.06;88.00;100464.66;4983284;28;20499;-54
2022/06/20 13:13:57;;;;;;;1.98;1.15;;;;;;;15.16;88.81;100470.06;4980801;28;20056;-55
2022/06/20 13:16:33;;;;;;;1.98;1.42;;;;;;;15.06;88.73;100464.66;4983180;28;20049;-55
2022/06/20 13:19:06;;;;;;;;;;;;;;;15.07;86.76;100446.94;4982578;28;20080;-54
2022/06/20 13:21:45;;;;;;;3.40;1.55;;;;;;;15.29;88.02;100454.84;4978027;28;19940;-58
2022/06/20 13:24:28;;;;;;;3.72;1.70;;;;;;;15.45;88.64;100481.00;4980336;28;20065;-55
2022/06/20 13:27:06;;;;;;;3.95;1.38;;;;;;;15.48;87.53;100480.72;4982880;28;20054;-57
2022/06/20 13:29:36;;;;;;;5.95;1.55;;;;;;;15.47;85.38;100473.72;4983994;28;20522;-56
2022/06/20 13:32:18;;;;;;;4.82;1.58;;;;;;;15.45;84.10;100470.38;4990351;28;20061;-55
2022/06/20 13:34:58;;;;;;;3.80;1.50;;;;;;;15.60;83.57;100444.38;4974240;28;20058;-55
2022/06/20 13:37:47;;;;;;;5.00;1.10;;;;;;;15.81;81.85;100463.03;4979404;28;20085;-57
2022/06/20 13:40:18;;;;;;;4.20;1.27;;;;;;;16.14;80.52;100477.94;4986385;28;20515;-54